createdAt,value
2022-09-26T00:00:02.335Z,0
2022-09-26T00:01:18.627Z,0
2022-09-26T00:02:34.937Z,0
2022-09-26T00:03:51.226Z,0
2022-09-26T00:05:07.507Z,0
2022-09-26T00:06:23.821Z,0
2022-09-26T00:07:39.125Z,0
2022-09-26T00:08:55.412Z,0
2022-09-26T00:10:11.705Z,0
2022-09-26T00:12:44.287Z,0
2022-09-26T00:14:00.587Z,0
2022-09-26T00:15:16.876Z,0
2022-09-26T00:16:33.180Z,0
2022-09-26T00:17:48.502Z,0
2022-09-26T00:19:04.794Z,0
2022-09-26T00:20:21.082Z,0
2022-09-26T00:21:37.364Z,0
2022-09-26T00:22:53.660Z,0
2022-09-26T00:24:09.967Z,0
2022-09-26T00:25:26.245Z,0
2022-09-26T00:26:42.560Z,0
2022-09-26T00:27:58.844Z,0
2022-09-26T00:29:15.131Z,0
2022-09-26T00:30:31.429Z,0
2022-09-26T00:31:47.718Z,0
2022-09-26T00:33:04.020Z,0
2022-09-26T00:35:35.621Z,0
2022-09-26T00:36:51.912Z,0
2022-09-26T00:38:08.204Z,0
2022-09-26T00:39:24.500Z,0
2022-09-26T00:40:40.788Z,0
2022-09-26T00:41:57.081Z,0
2022-09-26T00:43:13.389Z,0
2022-09-26T00:44:29.683Z,0
2022-09-26T00:45:45.973Z,0
2022-09-26T00:47:02.262Z,0
2022-09-26T00:48:18.568Z,0
2022-09-26T00:49:34.858Z,0
2022-09-26T00:50:50.172Z,0
2022-09-26T00:53:22.749Z,0
2022-09-26T00:54:39.038Z,0
2022-09-26T00:55:55.341Z,0
2022-09-26T00:58:27.932Z,0
2022-09-26T00:59:43.241Z,0
2022-09-26T01:00:58.558Z,0
2022-09-26T01:02:14.834Z,0
2022-09-26T01:03:31.144Z,0
2022-09-26T01:04:47.438Z,0
2022-09-26T01:06:03.728Z,0
2022-09-26T01:07:20.012Z,0
2022-09-26T01:08:36.321Z,0
2022-09-26T01:09:52.608Z,0
2022-09-26T01:11:08.891Z,0
2022-09-26T01:13:41.494Z,0
2022-09-26T01:14:57.791Z,0
2022-09-26T01:16:14.084Z,0
2022-09-26T01:17:30.370Z,0
2022-09-26T01:18:45.683Z,0
2022-09-26T01:20:01.971Z,0
2022-09-26T01:21:18.274Z,0
2022-09-26T01:22:34.561Z,0
2022-09-26T01:23:50.860Z,0
2022-09-26T01:25:07.140Z,0
2022-09-26T01:26:23.438Z,0
2022-09-26T01:28:55.054Z,0
2022-09-26T01:30:10.361Z,0
2022-09-26T01:31:26.663Z,0
2022-09-26T01:32:42.950Z,0
2022-09-26T01:33:59.231Z,0
2022-09-26T01:35:15.530Z,0
2022-09-26T01:36:31.819Z,0
2022-09-26T01:37:48.128Z,0
2022-09-26T01:39:04.413Z,0
2022-09-26T01:40:19.725Z,0
2022-09-26T01:41:35.037Z,0
2022-09-26T01:42:51.331Z,0
2022-09-26T01:44:07.627Z,0
2022-09-26T01:45:23.924Z,0
2022-09-26T01:46:40.214Z,0
2022-09-26T01:47:56.519Z,0
2022-09-26T01:49:12.794Z,0
2022-09-26T01:50:29.101Z,0
2022-09-26T01:51:45.400Z,0
2022-09-26T01:53:01.683Z,0
2022-09-26T01:54:17.988Z,0
2022-09-26T01:55:34.263Z,0
2022-09-26T01:56:50.561Z,0
2022-09-26T01:58:05.868Z,0
2022-09-26T01:59:22.181Z,0
2022-09-26T02:00:38.461Z,0
2022-09-26T02:01:54.751Z,0
2022-09-26T02:03:11.050Z,0
2022-09-26T02:04:27.352Z,0
2022-09-26T02:05:43.640Z,0
2022-09-26T02:06:59.934Z,0
2022-09-26T02:08:16.234Z,0
2022-09-26T02:09:32.528Z,0
2022-09-26T02:10:48.823Z,0
2022-09-26T02:12:05.099Z,0
2022-09-26T02:13:21.401Z,0
2022-09-26T02:14:36.711Z,0
2022-09-26T02:15:53.010Z,0
2022-09-26T02:17:09.292Z,0
2022-09-26T02:18:25.603Z,0
2022-09-26T02:19:41.880Z,0
2022-09-26T02:22:14.482Z,0
2022-09-26T02:23:30.778Z,0
2022-09-26T02:24:47.064Z,0
2022-09-26T02:26:03.364Z,0
2022-09-26T02:27:19.642Z,0
2022-09-26T02:28:35.951Z,0
2022-09-26T02:29:52.246Z,0
2022-09-26T02:31:07.543Z,0
2022-09-26T02:32:23.841Z,0
2022-09-26T02:33:40.137Z,0
2022-09-26T02:34:56.422Z,0
2022-09-26T02:36:12.720Z,0
2022-09-26T02:37:29.020Z,0
2022-09-26T02:38:45.320Z,0
2022-09-26T02:40:01.608Z,0
2022-09-26T02:41:17.899Z,0
2022-09-26T02:42:34.189Z,0
2022-09-26T02:43:50.485Z,0
2022-09-26T02:45:06.780Z,0
2022-09-26T02:46:23.071Z,0
2022-09-26T02:47:38.393Z,0
2022-09-26T02:48:54.667Z,0
2022-09-26T02:50:10.971Z,0
2022-09-26T02:51:27.263Z,0
2022-09-26T02:52:43.555Z,0
2022-09-26T02:53:59.848Z,0
2022-09-26T02:55:16.136Z,0
2022-09-26T02:56:32.430Z,0
2022-09-26T02:57:48.722Z,0
2022-09-26T02:59:05.026Z,0
2022-09-26T03:00:21.330Z,0
2022-09-26T03:01:37.622Z,0
2022-09-26T03:02:53.916Z,0
2022-09-26T03:04:09.228Z,0
2022-09-26T03:05:25.520Z,0
2022-09-26T03:06:41.800Z,0
2022-09-26T03:07:58.097Z,0
2022-09-26T03:09:14.387Z,0
2022-09-26T03:10:30.687Z,0
2022-09-26T03:11:46.979Z,0
2022-09-26T03:13:03.272Z,0
2022-09-26T03:15:35.864Z,0
2022-09-26T03:16:52.165Z,0
2022-09-26T03:18:08.451Z,0
2022-09-26T03:19:24.736Z,0
2022-09-26T03:20:40.060Z,0
2022-09-26T03:21:56.345Z,0
2022-09-26T03:23:12.643Z,0
2022-09-26T03:24:28.929Z,0
2022-09-26T03:25:45.223Z,0
2022-09-26T03:27:01.520Z,0
2022-09-26T03:28:17.820Z,0
2022-09-26T03:29:34.110Z,0
2022-09-26T03:30:50.411Z,0
2022-09-26T03:32:06.692Z,0
2022-09-26T03:33:22.994Z,0
2022-09-26T03:34:39.288Z,0
2022-09-26T03:35:55.585Z,0
2022-09-26T03:38:27.193Z,0
2022-09-26T03:39:43.482Z,0
2022-09-26T03:40:59.780Z,0
2022-09-26T03:42:16.068Z,0
2022-09-26T03:43:32.368Z,0
2022-09-26T03:44:48.648Z,0
2022-09-26T03:46:04.947Z,0
2022-09-26T03:47:21.249Z,0
2022-09-26T03:48:37.535Z,0
2022-09-26T03:49:53.824Z,0
2022-09-26T03:51:10.121Z,0
2022-09-26T03:52:26.415Z,0
2022-09-26T03:53:41.727Z,0
2022-09-26T03:56:14.313Z,0
2022-09-26T03:57:30.608Z,0
2022-09-26T03:58:46.895Z,0
2022-09-26T04:01:19.487Z,0
2022-09-26T04:02:34.799Z,0
2022-09-26T04:03:50.121Z,0
2022-09-26T04:05:06.398Z,0
2022-09-26T04:06:22.705Z,0
2022-09-26T04:07:38.999Z,0
2022-09-26T04:08:55.298Z,0
2022-09-26T04:10:11.573Z,0
2022-09-26T04:11:27.874Z,0
2022-09-26T04:12:44.172Z,0
2022-09-26T04:14:00.461Z,0
2022-09-26T04:16:33.052Z,0
2022-09-26T04:17:49.343Z,0
2022-09-26T04:19:05.631Z,0
2022-09-26T04:20:20.956Z,0
2022-09-26T04:21:37.254Z,0
2022-09-26T04:22:53.549Z,0
2022-09-26T04:24:09.000Z,0
2022-09-26T04:25:26.136Z,0
2022-09-26T04:26:42.415Z,0
2022-09-26T04:27:58.715Z,0
2022-09-26T04:29:15.008Z,0
2022-09-26T04:31:46.564Z,0
2022-09-26T04:33:01.848Z,1
2022-09-26T04:34:18.070Z,1
2022-09-26T04:35:34.365Z,0
2022-09-26T04:36:50.613Z,1
2022-09-26T04:38:06.907Z,0
2022-09-26T04:40:39.412Z,1
2022-09-26T04:41:54.677Z,10
2022-09-26T04:43:09.916Z,7
2022-09-26T04:44:26.153Z,6
2022-09-26T04:45:42.384Z,11
2022-09-26T04:46:58.620Z,13
2022-09-26T04:48:14.863Z,17
2022-09-26T04:49:31.109Z,19
2022-09-26T04:50:47.354Z,28
2022-09-26T04:52:03.577Z,30
2022-09-26T04:53:19.826Z,43
2022-09-26T04:54:36.056Z,59
2022-09-26T04:57:07.574Z,73
2022-09-26T04:58:22.823Z,85
2022-09-26T04:59:39.069Z,99
2022-09-26T05:00:55.306Z,116
2022-09-26T05:02:11.537Z,133
2022-09-26T05:03:27.773Z,156
2022-09-26T05:04:44.020Z,173
2022-09-26T05:06:00.273Z,195
2022-09-26T05:07:16.511Z,216
2022-09-26T05:08:32.742Z,233
2022-09-26T05:09:48.003Z,253
2022-09-26T05:11:03.269Z,274
2022-09-26T05:12:19.498Z,290
2022-09-26T05:13:35.736Z,305
2022-09-26T05:14:51.987Z,321
2022-09-26T05:17:24.460Z,360
2022-09-26T05:18:40.697Z,381
2022-09-26T05:19:56.937Z,408
2022-09-26T05:21:13.182Z,442
2022-09-26T05:22:29.426Z,475
2022-09-26T05:23:45.665Z,515
2022-09-26T05:25:01.906Z,558
2022-09-26T05:26:18.141Z,599
2022-09-26T05:27:33.406Z,624
2022-09-26T05:28:49.652Z,646
2022-09-26T05:30:05.874Z,673
2022-09-26T05:32:38.357Z,712
2022-09-26T05:33:53.627Z,736
2022-09-26T05:35:08.873Z,769
2022-09-26T05:36:25.109Z,823
2022-09-26T05:37:41.356Z,856
2022-09-26T05:38:57.607Z,916
2022-09-26T05:40:13.837Z,1006
2022-09-26T05:41:30.073Z,1076
2022-09-26T05:42:46.318Z,1188
2022-09-26T05:44:02.566Z,1197
2022-09-26T05:45:18.804Z,1163
2022-09-26T05:46:35.033Z,1141
2022-09-26T05:47:50.307Z,1151
2022-09-26T05:49:05.568Z,1159
2022-09-26T05:50:21.800Z,1140
2022-09-26T05:51:38.033Z,1117
2022-09-26T05:52:54.271Z,1103
2022-09-26T05:55:26.766Z,1152
2022-09-26T05:56:43.003Z,1175
2022-09-26T05:57:59.241Z,1145
2022-09-26T05:59:15.000Z,1180
2022-09-26T06:00:31.724Z,1239
2022-09-26T06:03:04.191Z,1258
2022-09-26T06:04:20.429Z,1236
2022-09-26T06:05:35.708Z,1212
2022-09-26T06:06:50.964Z,1314
2022-09-26T06:08:07.185Z,1399
2022-09-26T06:10:39.665Z,1466
2022-09-26T06:11:55.914Z,1481
2022-09-26T06:13:12.159Z,1498
2022-09-26T06:14:28.398Z,1511
2022-09-26T06:15:44.638Z,1525
2022-09-26T06:17:00.883Z,1539
2022-09-26T06:18:17.122Z,1552
2022-09-26T06:19:33.352Z,1566
2022-09-26T06:20:49.599Z,1581
2022-09-26T06:22:05.832Z,1590
2022-09-26T06:23:22.074Z,1594
2022-09-26T06:24:37.333Z,1599
2022-09-26T06:25:53.570Z,1609
2022-09-26T06:27:09.811Z,1613
2022-09-26T06:28:26.048Z,1578
2022-09-26T06:29:42.294Z,1557
2022-09-26T06:30:58.536Z,1573
2022-09-26T06:32:14.773Z,1561
2022-09-26T06:33:30.043Z,1552
2022-09-26T06:34:45.290Z,1563
2022-09-26T06:36:01.534Z,1567
2022-09-26T06:37:17.774Z,1588
2022-09-26T06:38:34.012Z,1632
2022-09-26T06:39:50.252Z,1656
2022-09-26T06:41:06.497Z,1638
2022-09-26T06:42:22.721Z,1653
2022-09-26T06:43:38.960Z,1721
2022-09-26T06:44:55.210Z,1748
2022-09-26T06:46:11.451Z,1769
2022-09-26T06:47:26.717Z,1794
2022-09-26T06:48:41.972Z,1811
2022-09-26T06:49:58.205Z,1812
2022-09-26T06:51:14.449Z,1804
2022-09-26T06:52:30.674Z,1812
2022-09-26T06:53:46.922Z,1826
2022-09-26T06:56:19.407Z,1854
2022-09-26T06:57:35.633Z,1874
2022-09-26T06:58:51.891Z,1893
2022-09-26T07:00:08.112Z,1920
2022-09-26T07:01:24.372Z,1952
2022-09-26T07:03:56.843Z,1990
2022-09-26T07:05:13.082Z,1999
2022-09-26T07:06:28.343Z,2006
2022-09-26T07:07:44.594Z,2004
2022-09-26T07:09:00.820Z,2005
2022-09-26T07:10:16.072Z,1999
2022-09-26T07:11:32.313Z,1999
2022-09-26T07:12:48.562Z,2023
2022-09-26T07:15:21.033Z,2032
2022-09-26T07:16:37.275Z,2053
2022-09-26T07:17:53.513Z,2067
2022-09-26T07:19:09.747Z,2070
2022-09-26T07:20:25.995Z,2078
2022-09-26T07:21:42.229Z,2089
2022-09-26T07:22:58.482Z,2106
2022-09-26T07:24:14.720Z,2127
2022-09-26T07:26:47.198Z,2149
2022-09-26T07:28:03.435Z,2159
2022-09-26T07:29:18.690Z,2176
2022-09-26T07:30:34.930Z,2182
2022-09-26T07:31:50.197Z,2165
2022-09-26T07:33:06.440Z,2169
2022-09-26T07:34:22.672Z,2173
2022-09-26T07:35:38.917Z,2164
2022-09-26T07:36:55.153Z,2162
2022-09-26T07:38:11.384Z,2162
2022-09-26T07:39:27.639Z,2170
2022-09-26T07:40:43.863Z,2182
2022-09-26T07:42:00.104Z,2187
2022-09-26T07:43:16.355Z,2192
2022-09-26T07:44:31.609Z,2193
2022-09-26T07:45:47.851Z,2193
2022-09-26T07:47:03.101Z,2204
2022-09-26T07:48:19.346Z,2215
2022-09-26T07:49:35.585Z,2221
2022-09-26T07:50:51.829Z,2235
2022-09-26T07:52:08.061Z,2245
2022-09-26T07:53:24.299Z,2252
2022-09-26T07:54:40.542Z,2259
2022-09-26T07:55:56.783Z,2279
2022-09-26T07:57:13.022Z,2289
2022-09-26T07:58:29.278Z,2298
2022-09-26T07:59:44.525Z,2311
2022-09-26T08:00:59.789Z,2329
2022-09-26T08:02:16.017Z,2345
2022-09-26T08:03:32.254Z,2352
2022-09-26T08:04:48.492Z,2366
2022-09-26T08:06:04.738Z,2381
2022-09-26T08:07:20.992Z,2395
2022-09-26T08:08:37.227Z,2404
2022-09-26T08:09:53.458Z,2413
2022-09-26T08:12:25.938Z,2426
2022-09-26T08:13:42.176Z,2433
2022-09-26T08:14:58.414Z,2434
2022-09-26T08:16:14.660Z,2435
2022-09-26T08:17:29.917Z,2433
2022-09-26T08:18:46.162Z,2433
2022-09-26T08:20:02.402Z,2432
2022-09-26T08:21:18.641Z,2419
2022-09-26T08:22:34.869Z,2416
2022-09-26T08:23:51.123Z,2414
2022-09-26T08:25:07.364Z,2415
2022-09-26T08:27:39.845Z,2414
2022-09-26T08:28:56.000Z,2414
2022-09-26T08:31:28.560Z,2414
2022-09-26T08:32:43.819Z,2417
2022-09-26T08:34:00.061Z,2421
2022-09-26T08:35:15.305Z,2428
2022-09-26T08:37:47.785Z,2427
2022-09-26T08:39:04.033Z,2430
2022-09-26T08:40:20.265Z,2435
2022-09-26T08:41:36.501Z,2432
2022-09-26T08:42:52.739Z,2409
2022-09-26T08:44:08.997Z,2396
2022-09-26T08:45:25.231Z,2383
2022-09-26T08:46:41.475Z,2364
2022-09-26T08:49:12.970Z,2323
2022-09-26T08:50:28.231Z,2309
2022-09-26T08:51:43.505Z,2305
2022-09-26T08:52:59.732Z,2287
2022-09-26T08:54:15.980Z,2240
2022-09-26T08:55:32.217Z,2186
2022-09-26T08:56:48.445Z,2160
2022-09-26T08:58:04.690Z,2166
2022-09-26T08:59:20.937Z,2168
2022-09-26T09:00:37.180Z,2171
2022-09-26T09:01:53.410Z,2195
2022-09-26T09:03:09.647Z,2217
2022-09-26T09:04:24.924Z,2230
2022-09-26T09:05:40.179Z,2238
2022-09-26T09:06:56.409Z,2252
2022-09-26T09:08:12.648Z,2269
2022-09-26T09:09:28.899Z,2284
2022-09-26T09:10:45.128Z,2290
2022-09-26T09:12:01.370Z,2292
2022-09-26T09:13:17.600Z,2300
2022-09-26T09:14:33.856Z,2306
2022-09-26T09:15:50.093Z,2313
2022-09-26T09:17:06.327Z,2314
2022-09-26T09:18:21.581Z,2317
2022-09-26T09:19:36.841Z,2312
2022-09-26T09:20:53.079Z,2305
2022-09-26T09:22:09.319Z,2306
2022-09-26T09:23:25.565Z,2305
2022-09-26T09:24:41.801Z,2307
2022-09-26T09:25:58.035Z,2304
2022-09-26T09:27:14.292Z,2307
2022-09-26T09:28:30.525Z,2310
2022-09-26T09:29:46.771Z,2319
2022-09-26T09:31:03.004Z,2324
2022-09-26T09:32:19.238Z,2330
2022-09-26T09:33:35.475Z,2334
2022-09-26T09:36:07.964Z,2334
2022-09-26T09:37:24.210Z,2332
2022-09-26T09:38:39.456Z,2332
2022-09-26T09:39:55.705Z,2336
2022-09-26T09:41:11.937Z,2342
2022-09-26T09:42:28.170Z,2342
2022-09-26T09:43:44.421Z,2345
2022-09-26T09:45:00.665Z,2338
2022-09-26T09:46:16.901Z,2335
2022-09-26T09:47:33.130Z,2333
2022-09-26T09:48:49.376Z,2329
2022-09-26T09:51:21.866Z,2334
2022-09-26T09:52:38.095Z,2347
2022-09-26T09:53:54.333Z,2352
2022-09-26T09:55:09.585Z,2351
2022-09-26T09:56:25.836Z,2356
2022-09-26T09:57:42.064Z,2359
2022-09-26T10:00:14.556Z,2363
2022-09-26T10:01:29.812Z,2382
2022-09-26T10:02:45.076Z,2418
2022-09-26T10:04:01.305Z,2443
2022-09-26T10:05:17.546Z,2439
2022-09-26T10:06:33.790Z,2452
2022-09-26T10:07:50.027Z,2457
2022-09-26T10:09:06.267Z,2463
2022-09-26T10:10:22.511Z,2460
2022-09-26T10:11:38.757Z,2451
2022-09-26T10:12:54.979Z,2454
2022-09-26T10:14:11.231Z,2459
2022-09-26T10:15:27.457Z,2466
2022-09-26T10:17:58.968Z,2501
2022-09-26T10:19:14.227Z,2530
2022-09-26T10:20:30.464Z,2577
2022-09-26T10:21:46.705Z,2706
2022-09-26T10:23:02.936Z,2889
2022-09-26T10:24:19.175Z,3004
2022-09-26T10:25:35.423Z,3038
2022-09-26T10:26:51.668Z,3079
2022-09-26T10:28:07.911Z,3221
2022-09-26T10:29:23.171Z,3260
2022-09-26T10:30:39.409Z,3179
2022-09-26T10:31:54.655Z,3212
2022-09-26T10:33:10.893Z,3231
2022-09-26T10:34:27.130Z,3205
2022-09-26T10:35:43.372Z,3247
2022-09-26T10:38:15.852Z,3422
2022-09-26T10:39:32.104Z,4577
2022-09-26T10:40:48.331Z,4757
2022-09-26T10:42:04.586Z,4499
2022-09-26T10:43:20.829Z,4235
2022-09-26T10:44:37.069Z,4015
2022-09-26T10:45:53.305Z,3688
2022-09-26T10:47:09.539Z,4015
2022-09-26T10:48:24.800Z,4339
2022-09-26T10:49:41.031Z,3834
2022-09-26T10:50:57.273Z,4606
2022-09-26T10:52:13.524Z,6234
2022-09-26T10:53:29.745Z,6425
2022-09-26T10:54:45.988Z,5618
2022-09-26T10:56:02.226Z,7031
2022-09-26T10:57:18.473Z,6127
2022-09-26T10:58:34.705Z,5572
2022-09-26T10:59:50.963Z,5670
2022-09-26T11:01:07.195Z,6021
2022-09-26T11:02:23.427Z,5367
2022-09-26T11:03:39.676Z,4587
2022-09-26T11:04:54.925Z,4065
2022-09-26T11:06:11.173Z,3933
2022-09-26T11:07:27.413Z,3849
2022-09-26T11:08:43.649Z,4342
2022-09-26T11:09:59.900Z,3830
2022-09-26T11:11:16.139Z,4105
2022-09-26T11:12:32.376Z,4158
2022-09-26T11:13:48.618Z,5169
2022-09-26T11:15:04.842Z,5504
2022-09-26T11:16:21.085Z,4740
2022-09-26T11:17:37.322Z,5716
2022-09-26T11:18:53.558Z,6667
2022-09-26T11:20:09.797Z,7565
2022-09-26T11:21:25.066Z,7153
2022-09-26T11:22:41.298Z,6519
2022-09-26T11:23:57.541Z,6074
2022-09-26T11:25:13.780Z,5709
2022-09-26T11:26:30.029Z,5246
2022-09-26T11:27:46.262Z,4841
2022-09-26T11:29:02.509Z,4609
2022-09-26T11:30:18.739Z,4347
2022-09-26T11:31:34.973Z,4032
2022-09-26T11:32:51.231Z,3701
2022-09-26T11:34:07.451Z,4465
2022-09-26T11:35:23.705Z,4456
2022-09-26T11:36:39.948Z,4175
2022-09-26T11:37:55.205Z,4020
2022-09-26T11:39:11.441Z,3847
2022-09-26T11:40:27.675Z,3942
2022-09-26T11:41:43.908Z,5161
2022-09-26T11:43:00.163Z,5284
2022-09-26T11:45:32.641Z,5527
2022-09-26T11:46:48.879Z,6621
2022-09-26T11:48:05.120Z,7499
2022-09-26T11:49:21.358Z,7328
2022-09-26T11:50:37.596Z,7201
2022-09-26T11:51:53.834Z,7049
2022-09-26T11:53:10.077Z,7204
2022-09-26T11:54:26.309Z,6857
2022-09-26T11:55:41.577Z,6769
2022-09-26T11:56:57.817Z,5796
2022-09-26T11:58:14.056Z,5565
2022-09-26T11:59:30.281Z,6279
2022-09-26T12:00:46.539Z,6548
2022-09-26T12:02:02.765Z,5534
2022-09-26T12:03:19.001Z,4296
2022-09-26T12:04:35.258Z,3502
2022-09-26T12:05:51.486Z,2921
2022-09-26T12:07:07.736Z,2513
2022-09-26T12:08:23.960Z,2346
2022-09-26T12:09:40.216Z,3140
2022-09-26T12:10:56.449Z,3806
2022-09-26T12:12:11.700Z,4764
2022-09-26T12:13:27.956Z,5471
2022-09-26T12:14:44.176Z,6282
2022-09-26T12:17:16.662Z,7325
2022-09-26T12:18:32.907Z,9230
2022-09-26T12:19:49.144Z,7913
2022-09-26T12:21:05.383Z,8128
2022-09-26T12:22:21.622Z,8374
2022-09-26T12:23:37.868Z,8097
2022-09-26T12:24:54.095Z,7042
2022-09-26T12:26:10.350Z,6423
2022-09-26T12:27:26.576Z,6271
2022-09-26T12:28:41.833Z,5964
2022-09-26T12:29:58.080Z,5988
2022-09-26T12:31:14.323Z,6432
2022-09-26T12:32:30.563Z,7491
2022-09-26T12:33:46.804Z,7021
2022-09-26T12:35:03.047Z,5811
2022-09-26T12:36:19.269Z,4769
2022-09-26T12:37:35.528Z,4029
2022-09-26T12:38:51.769Z,3692
2022-09-26T12:40:08.001Z,3805
2022-09-26T12:41:24.241Z,3536
2022-09-26T12:42:40.488Z,3958
2022-09-26T12:43:56.730Z,4869
2022-09-26T12:45:11.965Z,4927
2022-09-26T12:46:28.204Z,5466
2022-09-26T12:47:44.460Z,5889
2022-09-26T12:49:00.703Z,6943
2022-09-26T12:50:16.923Z,6144
2022-09-26T12:51:33.169Z,7740
2022-09-26T12:52:49.410Z,7193
2022-09-26T12:54:05.645Z,6354
2022-09-26T12:55:21.905Z,5720
2022-09-26T12:56:38.132Z,4971
2022-09-26T12:57:54.383Z,4794
2022-09-26T12:59:10.615Z,5178
2022-09-26T13:00:26.842Z,5257
2022-09-26T13:01:42.101Z,5211
2022-09-26T13:02:58.350Z,6165
2022-09-26T13:04:14.589Z,5562
2022-09-26T13:05:29.851Z,4964
2022-09-26T13:06:46.087Z,5091
2022-09-26T13:08:02.327Z,4660
2022-09-26T13:09:18.568Z,4645
2022-09-26T13:10:34.810Z,4313
2022-09-26T13:11:51.055Z,3992
2022-09-26T13:13:07.279Z,4478
2022-09-26T13:14:23.529Z,5200
2022-09-26T13:15:39.768Z,5802
2022-09-26T13:16:56.007Z,6657
2022-09-26T13:18:12.251Z,5766
2022-09-26T13:19:28.491Z,5083
2022-09-26T13:20:44.736Z,4643
2022-09-26T13:21:59.975Z,4322
2022-09-26T13:23:16.231Z,4068
2022-09-26T13:24:32.470Z,3906
2022-09-26T13:25:48.710Z,3825
2022-09-26T13:27:04.944Z,3783
2022-09-26T13:28:21.179Z,3816
2022-09-26T13:29:37.418Z,3852
2022-09-26T13:32:09.910Z,3667
2022-09-26T13:33:26.148Z,3830
2022-09-26T13:34:42.382Z,4139
2022-09-26T13:35:58.632Z,4306
2022-09-26T13:37:14.870Z,4588
2022-09-26T13:38:31.096Z,5002
2022-09-26T13:39:46.351Z,5368
2022-09-26T13:41:02.595Z,5823
2022-09-26T13:42:18.828Z,6190
2022-09-26T13:43:35.074Z,6182
2022-09-26T13:44:51.311Z,6328
2022-09-26T13:46:07.562Z,6327
2022-09-26T13:47:23.802Z,5828
2022-09-26T13:48:40.036Z,5243
2022-09-26T13:49:56.274Z,5568
2022-09-26T13:51:12.511Z,6670
2022-09-26T13:52:28.760Z,6258
2022-09-26T13:53:44.990Z,5108
2022-09-26T13:55:01.239Z,4348
2022-09-26T13:56:16.503Z,4093
2022-09-26T13:57:32.741Z,3493
2022-09-26T13:58:48.980Z,3881
2022-09-26T14:00:05.206Z,5019
2022-09-26T14:02:37.697Z,4718
2022-09-26T14:03:53.936Z,4412
2022-09-26T14:05:10.178Z,3717
2022-09-26T14:06:26.421Z,3179
2022-09-26T14:07:42.661Z,3207
2022-09-26T14:08:58.897Z,3318
2022-09-26T14:10:15.122Z,3606
2022-09-26T14:11:31.361Z,4048
2022-09-26T14:12:46.629Z,4203
2022-09-26T14:14:02.867Z,4282
2022-09-26T14:15:19.112Z,4240
2022-09-26T14:17:51.578Z,4139
2022-09-26T14:19:07.831Z,4384
2022-09-26T14:20:24.069Z,4521
2022-09-26T14:21:40.303Z,4184
2022-09-26T14:22:56.539Z,4425
2022-09-26T14:24:12.790Z,4497
2022-09-26T14:25:29.014Z,4055
2022-09-26T14:26:45.264Z,3935
2022-09-26T14:28:01.504Z,3921
2022-09-26T14:29:16.757Z,3855
2022-09-26T14:30:32.994Z,3859
2022-09-26T14:31:49.234Z,4275
2022-09-26T14:33:05.471Z,5370
2022-09-26T14:34:21.713Z,5239
2022-09-26T14:35:37.954Z,5109
2022-09-26T14:36:54.194Z,4823
2022-09-26T14:38:10.449Z,5074
2022-09-26T14:39:26.684Z,4628
2022-09-26T14:40:42.910Z,4346
2022-09-26T14:41:59.153Z,4122
2022-09-26T14:43:15.399Z,3563
2022-09-26T14:44:31.647Z,2911
2022-09-26T14:45:46.894Z,3082
2022-09-26T14:47:03.141Z,3764
2022-09-26T14:48:19.386Z,4254
2022-09-26T14:49:35.611Z,4258
2022-09-26T14:50:51.845Z,3774
2022-09-26T14:52:08.099Z,3441
2022-09-26T14:53:24.340Z,3415
2022-09-26T14:54:40.582Z,3054
2022-09-26T14:55:56.819Z,3510
2022-09-26T14:58:29.287Z,4159
2022-09-26T14:59:45.527Z,4697
2022-09-26T15:01:01.783Z,4005
2022-09-26T15:02:17.024Z,3448
2022-09-26T15:03:33.266Z,3021
2022-09-26T15:04:49.510Z,2777
2022-09-26T15:06:05.752Z,2619
2022-09-26T15:07:21.982Z,2527
2022-09-26T15:08:38.220Z,2432
2022-09-26T15:09:54.477Z,2380
2022-09-26T15:11:10.705Z,2376
2022-09-26T15:12:26.945Z,2373
2022-09-26T15:13:43.197Z,2416
2022-09-26T15:14:59.433Z,2485
2022-09-26T15:16:15.675Z,2524
2022-09-26T15:17:31.897Z,2615
2022-09-26T15:18:47.158Z,2803
2022-09-26T15:20:03.400Z,2775
2022-09-26T15:21:19.639Z,2713
2022-09-26T15:22:35.891Z,2467
2022-09-26T15:23:52.118Z,2323
2022-09-26T15:25:08.362Z,2624
2022-09-26T15:26:24.603Z,3356
2022-09-26T15:27:40.853Z,3367
2022-09-26T15:28:57.091Z,3512
2022-09-26T15:30:13.325Z,3469
2022-09-26T15:31:29.567Z,3177
2022-09-26T15:32:45.796Z,2920
2022-09-26T15:34:02.046Z,2725
2022-09-26T15:35:18.294Z,2619
2022-09-26T15:36:33.539Z,2581
2022-09-26T15:37:49.770Z,2546
2022-09-26T15:39:06.010Z,2514
2022-09-26T15:40:22.258Z,2481
2022-09-26T15:41:38.494Z,2449
2022-09-26T15:42:54.737Z,2439
2022-09-26T15:45:27.211Z,2436
2022-09-26T15:46:43.457Z,2427
2022-09-26T15:47:59.696Z,2421
2022-09-26T15:49:15.934Z,2414
2022-09-26T15:50:32.179Z,2397
2022-09-26T15:51:48.415Z,2367
2022-09-26T15:53:03.669Z,2333
2022-09-26T15:54:19.920Z,2299
2022-09-26T15:55:36.153Z,2245
2022-09-26T15:56:52.382Z,2176
2022-09-26T15:58:08.627Z,2126
2022-09-26T15:59:24.870Z,2089
2022-09-26T16:00:41.113Z,2048
2022-09-26T16:01:57.356Z,1989
2022-09-26T16:03:13.597Z,1923
2022-09-26T16:04:29.824Z,1870
2022-09-26T16:05:46.073Z,1814
2022-09-26T16:07:02.314Z,1759
2022-09-26T16:08:18.561Z,1695
2022-09-26T16:10:50.057Z,1581
2022-09-26T16:12:06.281Z,1525
2022-09-26T16:13:22.533Z,1475
2022-09-26T16:14:38.763Z,1428
2022-09-26T16:15:54.997Z,1385
2022-09-26T16:17:11.254Z,1346
2022-09-26T16:18:27.494Z,1303
2022-09-26T16:19:43.734Z,1263
2022-09-26T16:20:59.971Z,1221
2022-09-26T16:22:16.197Z,1176
2022-09-26T16:23:32.444Z,1139
2022-09-26T16:24:48.683Z,1103
2022-09-26T16:26:03.935Z,1067
2022-09-26T16:27:20.179Z,1034
2022-09-26T16:28:36.425Z,1004
2022-09-26T16:29:52.653Z,965
2022-09-26T16:31:08.901Z,930
2022-09-26T16:32:25.137Z,885
2022-09-26T16:33:41.382Z,845
2022-09-26T16:34:57.612Z,806
2022-09-26T16:36:13.869Z,774
2022-09-26T16:37:30.108Z,738
2022-09-26T16:38:46.336Z,707
2022-09-26T16:40:02.589Z,675
2022-09-26T16:41:18.818Z,639
2022-09-26T16:42:34.074Z,604
2022-09-26T16:43:50.317Z,571
2022-09-26T16:45:06.558Z,532
2022-09-26T16:46:22.793Z,490
2022-09-26T16:47:39.038Z,458
2022-09-26T16:48:55.276Z,429
2022-09-26T16:50:11.521Z,401
2022-09-26T16:51:27.757Z,368
2022-09-26T16:52:43.990Z,336
2022-09-26T16:54:00.245Z,304
2022-09-26T16:55:16.471Z,274
2022-09-26T16:56:32.715Z,245
2022-09-26T16:57:48.961Z,213
2022-09-26T16:59:05.188Z,180
2022-09-26T17:00:20.462Z,155
2022-09-26T17:01:36.684Z,134
2022-09-26T17:02:52.922Z,121
2022-09-26T17:04:09.176Z,107
2022-09-26T17:05:25.407Z,94
2022-09-26T17:06:41.657Z,83
2022-09-26T17:07:57.893Z,73
2022-09-26T17:09:14.141Z,65
2022-09-26T17:10:30.368Z,57
2022-09-26T17:11:46.620Z,46
2022-09-26T17:13:02.842Z,39
2022-09-26T17:14:19.094Z,35
2022-09-26T17:15:35.338Z,26
2022-09-26T17:16:50.581Z,22
2022-09-26T17:18:06.829Z,18
2022-09-26T17:19:23.065Z,13
2022-09-26T17:20:38.334Z,12
2022-09-26T17:21:54.575Z,10
2022-09-26T17:23:10.808Z,8
2022-09-26T17:24:27.054Z,4
2022-09-26T17:25:43.291Z,3
2022-09-26T17:26:59.531Z,2
2022-09-26T17:28:15.766Z,2
2022-09-26T17:29:31.998Z,1
2022-09-26T17:30:48.257Z,2
2022-09-26T17:32:04.491Z,1
2022-09-26T17:33:20.728Z,1
2022-09-26T17:34:37.018Z,0
2022-09-26T17:35:53.307Z,0
2022-09-26T17:37:09.618Z,0
2022-09-26T17:38:24.922Z,0
2022-09-26T17:39:41.221Z,0
2022-09-26T17:40:57.501Z,0
2022-09-26T17:42:13.804Z,0
2022-09-26T17:43:30.094Z,0
2022-09-26T17:44:46.391Z,0
2022-09-26T17:46:02.678Z,0
2022-09-26T17:47:18.976Z,0
2022-09-26T17:48:35.280Z,0
2022-09-26T17:49:51.561Z,0
2022-09-26T17:51:07.847Z,0
2022-09-26T17:52:24.154Z,0
2022-09-26T17:53:40.437Z,0
2022-09-26T17:54:55.760Z,0
2022-09-26T17:56:12.057Z,0
2022-09-26T17:57:28.338Z,0
2022-09-26T17:58:44.628Z,0
2022-09-26T18:00:00.929Z,0
2022-09-26T18:01:17.231Z,0
2022-09-26T18:02:33.508Z,0
2022-09-26T18:03:49.821Z,0
2022-09-26T18:05:06.100Z,0
2022-09-26T18:06:22.392Z,0
2022-09-26T18:07:38.699Z,0
2022-09-26T18:08:54.981Z,0
2022-09-26T18:10:11.276Z,0
2022-09-26T18:11:26.581Z,0
2022-09-26T18:12:42.879Z,0
2022-09-26T18:13:59.188Z,0
2022-09-26T18:15:15.475Z,0
2022-09-26T18:16:31.763Z,0
2022-09-26T18:17:48.057Z,0
2022-09-26T18:19:04.353Z,0
2022-09-26T18:21:36.949Z,0
2022-09-26T18:22:53.228Z,0
2022-09-26T18:24:09.539Z,0
2022-09-26T18:25:25.815Z,0